sensor_id;sensor_type;location;lat;lon;timestamp;pressure;altitude;pressure_sealevel;temperature;humidity
41945;BME280;63122;52.424;13.458;2024-01-15T01:05:13;98685.88;;;0.48;100.00
41945;BME280;63122;52.424;13.458;2024-01-15T01:12:14;98694.78;;;0.45;100.00
41945;BME280;63122;52.424;13.458;2024-01-15T01:48:36;98676.69;;;0.14;100.00
41945;BME280;63122;52.424;13.458;2024-01-15T01:50:38;98666.56;;;0.11;100.00
41945;BME280;63122;52.424;13.458;2024-01-15T01:52:53;98684.31;;;0.06;100.00
41945;BME280;63122;52.424;13.458;2024-01-15T01:56:18;98700.69;;;0.06;100.00
41945;BME280;63122;52.424;13.458;2024-01-15T01:59:50;98693.03;;;0.05;100.00
41945;BME280;63122;52.424;13.458;2024-01-15T02:47:47;98655.94;;;0.14;100.00
41945;BME280;63122;52.424;13.458;2024-01-15T02:49:54;98655.00;;;0.15;100.00
41945;BME280;63122;52.424;13.458;2024-01-15T02:55:01;98654.03;;;0.16;100.00
41945;BME280;63122;52.424;13.458;2024-01-15T02:55:42;98656.63;;;0.16;100.00
41945;BME280;63122;52.424;13.458;2024-01-15T02:57:39;98647.34;;;0.13;100.00
41945;BME280;63122;52.424;13.458;2024-01-15T02:59:56;98652.41;;;0.15;100.00
41945;BME280;63122;52.424;13.458;2024-01-15T03:02:01;98642.03;;;0.15;100.00
41945;BME280;63122;52.424;13.458;2024-01-15T03:04:51;98638.72;;;0.13;100.00
41945;BME280;63122;52.424;13.458;2024-01-15T03:07:15;98641.31;;;0.13;100.00
41945;BME280;63122;52.424;13.458;2024-01-15T03:10:03;98624.13;;;0.12;100.00
41945;BME280;63122;52.424;13.458;2024-01-15T03:12:01;98645.81;;;0.11;100.00
41945;BME280;63122;52.424;13.458;2024-01-15T03:14:32;98631.22;;;0.10;100.00
41945;BME280;63122;52.424;13.458;2024-01-15T03:17:01;98629.59;;;0.09;100.00
41945;BME280;63122;52.424;13.458;2024-01-15T03:20:05;98626.19;;;0.08;100.00
41945;BME280;63122;52.424;13.458;2024-01-15T03:22:57;98624.53;;;0.07;100.00
41945;BME280;63122;52.424;13.458;2024-01-15T03:25:58;98643.22;;;0.11;100.00
41945;BME280;63122;52.424;13.458;2024-01-15T03:28:22;98622.38;;;0.12;100.00
41945;BME280;63122;52.424;13.458;2024-01-15T03:30:35;98625.75;;;0.13;100.00
41945;BME280;63122;52.424;13.458;2024-01-15T03:32:36;98629.06;;;0.15;100.00
41945;BME280;63122;52.424;13.458;2024-01-15T03:34:33;98616.91;;;0.16;100.00
41945;BME280;63122;52.424;13.458;2024-01-15T03:36:30;98608.44;;;0.13;100.00
41945;BME280;63122;52.424;13.458;2024-01-15T03:38:27;98610.19;;;0.13;100.00
41945;BME280;63122;52.424;13.458;2024-01-15T03:40:26;98631.50;;;0.17;100.00
41945;BME280;63122;52.424;13.458;2024-01-15T03:42:21;98627.16;;;0.17;100.00
41945;BME280;63122;52.424;13.458;2024-01-15T03:44:17;98628.66;;;0.20;100.00
41945;BME280;63122;52.424;13.458;2024-01-15T03:46:10;98611.44;;;0.19;100.00
41945;BME280;63122;52.424;13.458;2024-01-15T03:48:06;98615.81;;;0.18;100.00
41945;BME280;63122;52.424;13.458;2024-01-15T03:49:59;98615.81;;;0.18;100.00
41945;BME280;63122;52.424;13.458;2024-01-15T03:51:57;98611.44;;;0.19;100.00
41945;BME280;63122;52.424;13.458;2024-01-15T03:53:57;98610.50;;;0.20;100.00
41945;BME280;63122;52.424;13.458;2024-01-15T03:55:54;98614.03;;;0.19;100.00
41945;BME280;63122;52.424;13.458;2024-01-15T03:57:52;98603.66;;;0.19;100.00
41945;BME280;63122;52.424;13.458;2024-01-15T03:59:48;98602.72;;;0.20;100.00
41945;BME280;63122;52.424;13.458;2024-01-15T04:01:48;98599.16;;;0.21;100.00
41945;BME280;63122;52.424;13.458;2024-01-15T04:03:47;98593.00;;;0.22;100.00
41945;BME280;63122;52.424;13.458;2024-01-15T04:05:43;98593.00;;;0.22;100.00
41945;BME280;63122;52.424;13.458;2024-01-15T04:07:41;98580.06;;;0.22;100.00
41945;BME280;63122;52.424;13.458;2024-01-15T04:09:37;98591.38;;;0.21;100.00
41945;BME280;63122;52.424;13.458;2024-01-15T04:11:29;98584.28;;;0.23;100.00
41945;BME280;63122;52.424;13.458;2024-01-15T04:13:25;98590.31;;;0.23;100.00
41945;BME280;63122;52.424;13.458;2024-01-15T04:15:18;98593.84;;;0.22;100.00
41945;BME280;63122;52.424;13.458;2024-01-15T04:17:14;98570.50;;;0.22;100.00
41945;BME280;63122;52.424;13.458;2024-01-15T04:19:06;98588.66;;;0.22;100.00
41945;BME280;63122;52.424;13.458;2024-01-15T04:21:04;98570.50;;;0.22;100.00
41945;BME280;63122;52.424;13.458;2024-01-15T04:22:59;98589.34;;;0.24;100.00
41945;BME280;63122;52.424;13.458;2024-01-15T04:24:54;98562.44;;;0.25;100.00
41945;BME280;63122;52.424;13.458;2024-01-15T04:26:50;98579.78;;;0.25;100.00
41945;BME280;63122;52.424;13.458;2024-01-15T04:28:43;98570.09;;;0.27;100.00
41945;BME280;63122;52.424;13.458;2024-01-15T04:30:38;98570.50;;;0.32;100.00
41945;BME280;63122;52.424;13.458;2024-01-15T04:32:34;98559.47;;;0.30;100.00
41945;BME280;63122;52.424;13.458;2024-01-15T04:34:29;98561.09;;;0.31;100.00
41945;BME280;63122;52.424;13.458;2024-01-15T04:36:25;98574.06;;;0.31;100.00
41945;BME280;63122;52.424;13.458;2024-01-15T04:38:23;98573.22;;;0.31;100.00
41945;BME280;63122;52.424;13.458;2024-01-15T04:40:18;98586.88;;;0.33;100.00
41945;BME280;63122;52.424;13.458;2024-01-15T04:42:11;98588.66;;;0.32;100.00
41945;BME280;63122;52.424;13.458;2024-01-15T04:44:06;98591.09;;;0.34;100.00
41945;BME280;63122;52.424;13.458;2024-01-15T04:45:59;98570.34;;;0.34;100.00
41945;BME280;63122;52.424;13.458;2024-01-15T04:47:55;98572.00;;;0.35;100.00
41945;BME280;63122;52.424;13.458;2024-01-15T04:49:50;98570.22;;;0.35;100.00
41945;BME280;63122;52.424;13.458;2024-01-15T04:51:44;98544.28;;;0.35;100.00
41945;BME280;63122;52.424;13.458;2024-01-15T04:53:41;98558.91;;;0.36;100.00
41945;BME280;63122;52.424;13.458;2024-01-15T04:55:37;98541.53;;;0.37;100.00
41945;BME280;63122;52.424;13.458;2024-01-15T04:57:32;98532.97;;;0.36;100.00
41945;BME280;63122;52.424;13.458;2024-01-15T04:59:25;98523.53;;;0.35;100.00
41945;BME280;63122;52.424;13.458;2024-01-15T05:01:21;98528.84;;;0.34;100.00
41945;BME280;63122;52.424;13.458;2024-01-15T05:03:17;98516.72;;;0.34;100.00
41945;BME280;63122;52.424;13.458;2024-01-15T05:05:10;98530.50;;;0.35;100.00
41945;BME280;63122;52.424;13.458;2024-01-15T05:07:06;98551.41;;;0.33;100.00
41945;BME280;63122;52.424;13.458;2024-01-15T05:09:02;98580.72;;;0.34;100.00
41945;BME280;63122;52.424;13.458;2024-01-15T05:10:58;98558.22;;;0.34;100.00
41945;BME280;63122;52.424;13.458;2024-01-15T05:12:50;98539.91;;;0.36;100.00
41945;BME280;63122;52.424;13.458;2024-01-15T05:14:46;98548.38;;;0.38;100.00
41945;BME280;63122;52.424;13.458;2024-01-15T05:16:46;98543.47;;;0.35;100.00
41945;BME280;63122;52.424;13.458;2024-01-15T05:18:40;98543.91;;;0.30;100.00
41945;BME280;63122;52.424;13.458;2024-01-15T05:20:35;98574.59;;;0.25;100.00
41945;BME280;63122;52.424;13.458;2024-01-15T05:22:28;98552.47;;;0.21;100.00
41945;BME280;63122;52.424;13.458;2024-01-15T05:24:26;98556.84;;;0.20;100.00
41945;BME280;63122;52.424;13.458;2024-01-15T05:26:19;98547.44;;;0.19;100.00
41945;BME280;63122;52.424;13.458;2024-01-15T05:28:15;98570.78;;;0.19;100.00
41945;BME280;63122;52.424;13.458;2024-01-15T05:30:09;98547.44;;;0.19;100.00
41945;BME280;63122;52.424;13.458;2024-01-15T05:32:04;98555.91;;;0.21;100.00
41945;BME280;63122;52.424;13.458;2024-01-15T05:34:00;98552.19;;;0.24;100.00
41945;BME280;63122;52.424;13.458;2024-01-15T05:35:55;98555.47;;;0.26;100.00
41945;BME280;63122;52.424;13.458;2024-01-15T05:37:51;98531.06;;;0.28;100.00
41945;BME280;63122;52.424;13.458;2024-01-15T05:39:49;98545.38;;;0.33;100.00
41945;BME280;63122;52.424;13.458;2024-01-15T05:41:43;98551.91;;;0.37;100.00
41945;BME280;63122;52.424;13.458;2024-01-15T05:43:38;98526.66;;;0.39;100.00
41945;BME280;63122;52.424;13.458;2024-01-15T05:45:34;98533.34;;;0.41;100.00
41945;BME280;63122;52.424;13.458;2024-01-15T05:47:27;98535.00;;;0.42;100.00
41945;BME280;63122;52.424;13.458;2024-01-15T05:49:22;98536.63;;;0.43;100.00
41945;BME280;63122;52.424;13.458;2024-01-15T05:51:18;98526.94;;;0.46;100.00
41945;BME280;63122;52.424;13.458;2024-01-15T05:53:14;98511.38;;;0.46;100.00
41945;BME280;63122;52.424;13.458;2024-01-15T05:55:10;98522.56;;;0.46;100.00
41945;BME280;63122;52.424;13.458;2024-01-15T05:57:06;98520.78;;;0.47;100.00
41945;BME280;63122;52.424;13.458;2024-01-15T05:59:02;98512.03;;;0.48;100.00
41945;BME280;63122;52.424;13.458;2024-01-15T06:00:55;98511.25;;;0.47;100.00
41945;BME280;63122;52.424;13.458;2024-01-15T06:02:51;98532.00;;;0.47;100.00
41945;BME280;63122;52.424;13.458;2024-01-15T06:04:44;98534.31;;;0.40;100.00
41945;BME280;63122;52.424;13.458;2024-01-15T06:06:40;98561.78;;;0.33;100.00
41945;BME280;63122;52.424;13.458;2024-01-15T06:08:33;98543.34;;;0.26;100.00
41945;BME280;63122;52.424;13.458;2024-01-15T06:10:31;98539.22;;;0.24;100.00
41945;BME280;63122;52.424;13.458;2024-01-15T06:12:27;98541.03;;;0.23;100.00
41945;BME280;63122;52.424;13.458;2024-01-15T06:14:23;98553.16;;;0.23;100.00
41945;BME280;63122;52.424;13.458;2024-01-15T06:16:18;98558.06;;;0.26;100.00
41945;BME280;63122;52.424;13.458;2024-01-15T06:18:15;98545.94;;;0.26;100.00
41945;BME280;63122;52.424;13.458;2024-01-15T06:20:11;98544.13;;;0.27;100.00
41945;BME280;63122;52.424;13.458;2024-01-15T06:22:07;98526.81;;;0.27;100.00
41945;BME280;63122;52.424;13.458;2024-01-15T06:24:00;98525.75;;;0.30;100.00
41945;BME280;63122;52.424;13.458;2024-01-15T06:25:57;98506.63;;;0.31;100.00
41945;BME280;63122;52.424;13.458;2024-01-15T06:27:56;98520.28;;;0.33;100.00
41945;BME280;63122;52.424;13.458;2024-01-15T06:29:51;98520.94;;;0.35;100.00
41945;BME280;63122;52.424;13.458;2024-01-15T06:31:48;98537.19;;;0.37;100.00
41945;BME280;63122;52.424;13.458;2024-01-15T06:33:44;98522.44;;;0.38;100.00
41945;BME280;63122;52.424;13.458;2024-01-15T06:35:42;98538.44;;;0.33;100.00
41945;BME280;63122;52.424;13.458;2024-01-15T06:37:35;98529.13;;;0.31;100.00
41945;BME280;63122;52.424;13.458;2024-01-15T06:39:31;98552.63;;;0.29;100.00
41945;BME280;63122;52.424;13.458;2024-01-15T06:41:29;98534.47;;;0.29;100.00
41945;BME280;63122;52.424;13.458;2024-01-15T06:43:22;98542.09;;;0.31;100.00
41945;BME280;63122;52.424;13.458;2024-01-15T06:45:17;98534.03;;;0.34;100.00
41945;BME280;63122;52.424;13.458;2024-01-15T06:47:13;98519.16;;;0.36;100.00
41945;BME280;63122;52.424;13.458;2024-01-15T06:49:06;98530.38;;;0.36;100.00
41945;BME280;63122;52.424;13.458;2024-01-15T06:51:02;98559.59;;;0.38;100.00
41945;BME280;63122;52.424;13.458;2024-01-15T06:52:57;98536.78;;;0.42;100.00
41945;BME280;63122;52.424;13.458;2024-01-15T06:54:53;98536.50;;;0.45;100.00
41945;BME280;63122;52.424;13.458;2024-01-15T06:59:21;98536.34;;;0.47;100.00
41945;BME280;63122;52.424;13.458;2024-01-15T07:04:06;98534.31;;;0.50;100.00
41945;BME280;63122;52.424;13.458;2024-01-15T07:06:01;98563.66;;;0.51;100.00
41945;BME280;63122;52.424;13.458;2024-01-15T07:07:54;98540.16;;;0.52;100.00
41945;BME280;63122;52.424;13.458;2024-01-15T07:09:49;98544.41;;;0.53;100.00
41945;BME280;63122;52.424;13.458;2024-01-15T07:11:45;98533.88;;;0.55;100.00
41945;BME280;63122;52.424;13.458;2024-01-15T07:13:43;98539.06;;;0.55;100.00
41945;BME280;63122;52.424;13.458;2024-01-15T07:15:39;98572.53;;;0.58;100.00
41945;BME280;63122;52.424;13.458;2024-01-15T07:17:34;98545.63;;;0.59;100.00
41945;BME280;63122;52.424;13.458;2024-01-15T07:19:32;98545.47;;;0.61;100.00
41945;BME280;63122;52.424;13.458;2024-01-15T07:21:27;98550.38;;;0.64;100.00
41945;BME280;63122;52.424;13.458;2024-01-15T07:23:20;98552.56;;;0.68;100.00
41945;BME280;63122;52.424;13.458;2024-01-15T07:25:18;98565.25;;;0.71;100.00
41945;BME280;63122;52.424;13.458;2024-01-15T07:27:14;98546.13;;;0.73;100.00
41945;BME280;63122;52.424;13.458;2024-01-15T07:29:12;98564.47;;;0.71;100.00
41945;BME280;63122;52.424;13.458;2024-01-15T07:31:08;98543.53;;;0.73;100.00
41945;BME280;63122;52.424;13.458;2024-01-15T07:33:01;98556.53;;;0.73;100.00
41945;BME280;63122;52.424;13.458;2024-01-15T07:34:57;98571.97;;;0.74;100.00
41945;BME280;63122;52.424;13.458;2024-01-15T07:36:52;98572.78;;;0.75;100.00
41945;BME280;63122;52.424;13.458;2024-01-15T07:38:48;98590.81;;;0.76;100.00
41945;BME280;63122;52.424;13.458;2024-01-15T07:40:41;98578.50;;;0.78;100.00
41945;BME280;63122;52.424;13.458;2024-01-15T07:42:36;98581.09;;;0.78;100.00
41945;BME280;63122;52.424;13.458;2024-01-15T07:44:33;98594.59;;;0.82;100.00
41945;BME280;63122;52.424;13.458;2024-01-15T07:46:29;98595.44;;;0.82;100.00
41945;BME280;63122;52.424;13.458;2024-01-15T07:50:54;98587.66;;;0.82;100.00
41945;BME280;63122;52.424;13.458;2024-01-15T07:52:49;98580.94;;;0.80;100.00
41945;BME280;63122;52.424;13.458;2024-01-15T07:54:42;98576.44;;;0.82;100.00
41945;BME280;63122;52.424;13.458;2024-01-15T07:56:53;98583.25;;;0.83;100.00
41945;BME280;63122;52.424;13.458;2024-01-15T07:58:48;98605.16;;;0.80;100.00
41945;BME280;63122;52.424;13.458;2024-01-15T08:00:46;98592.00;;;0.82;100.00
41945;BME280;63122;52.424;13.458;2024-01-15T08:02:42;98576.44;;;0.82;100.00
41945;BME280;63122;52.424;13.458;2024-01-15T08:04:38;98586.97;;;0.80;100.00
41945;BME280;63122;52.424;13.458;2024-01-15T08:06:31;98582.75;;;0.79;100.00
41945;BME280;63122;52.424;13.458;2024-01-15T08:08:27;98593.94;;;0.80;100.00
41945;BME280;63122;52.424;13.458;2024-01-15T08:10:23;98636.13;;;0.82;100.00
41945;BME280;63122;52.424;13.458;2024-01-15T08:12:18;98597.06;;;0.83;100.00
41945;BME280;63122;52.424;13.458;2024-01-15T08:14:14;98586.81;;;0.82;100.00
41945;BME280;63122;52.424;13.458;2024-01-15T08:16:10;98593.94;;;0.80;100.00
41945;BME280;63122;52.424;13.458;2024-01-15T08:18:06;98599.00;;;0.81;100.00
41945;BME280;63122;52.424;13.458;2024-01-15T08:19:59;98599.81;;;0.82;100.00
41945;BME280;63122;52.424;13.458;2024-01-15T08:21:55;98593.66;;;0.83;100.00
41945;BME280;63122;52.424;13.458;2024-01-15T08:23:51;98583.13;;;0.84;100.00
41945;BME280;63122;52.424;13.458;2024-01-15T08:25:46;98592.56;;;0.85;100.00
41945;BME280;63122;52.424;13.458;2024-01-15T08:27:43;98593.41;;;0.86;100.00
41945;BME280;63122;52.424;13.458;2024-01-15T08:29:36;98590.13;;;0.84;100.00
41945;BME280;63122;52.424;13.458;2024-01-15T08:31:35;98612.78;;;0.82;100.00
41945;BME280;63122;52.424;13.458;2024-01-15T08:33:31;98634.78;;;0.78;100.00
41945;BME280;63122;52.424;13.458;2024-01-15T08:35:26;98601.03;;;0.78;100.00
41945;BME280;63122;52.424;13.458;2024-01-15T08:37:22;98592.16;;;0.80;100.00
41945;BME280;63122;52.424;13.458;2024-01-15T08:39:18;98604.31;;;0.80;100.00
41945;BME280;63122;52.424;13.458;2024-01-15T08:41:13;98611.44;;;0.78;100.00
41945;BME280;63122;52.424;13.458;2024-01-15T08:43:09;98595.44;;;0.82;100.00
41945;BME280;63122;52.424;13.458;2024-01-15T08:45:03;98590.63;;;0.88;100.00
41945;BME280;63122;52.424;13.458;2024-01-15T08:47:01;98605.53;;;0.95;100.00
41945;BME280;63122;52.424;13.458;2024-01-15T08:48:56;98592.13;;;1.00;100.00
41945;BME280;63122;52.424;13.458;2024-01-15T08:50:52;98585.81;;;1.03;100.00
41945;BME280;63122;52.424;13.458;2024-01-15T08:53:01;98590.22;;;1.02;100.00
41945;BME280;63122;52.424;13.458;2024-01-15T08:55:05;98621.22;;;1.04;100.00
41945;BME280;63122;52.424;13.458;2024-01-15T08:57:00;98596.06;;;1.04;100.00
41945;BME280;63122;52.424;13.458;2024-01-15T08:58:55;98622.06;;;1.04;100.00
41945;BME280;63122;52.424;13.458;2024-01-15T09:00:49;98594.28;;;1.05;100.00
41945;BME280;63122;52.424;13.458;2024-01-15T09:02:48;98582.25;;;1.04;100.00
41945;BME280;63122;52.424;13.458;2024-01-15T09:04:41;98612.63;;;1.03;100.00
41945;BME280;63122;52.424;13.458;2024-01-15T09:06:36;98616.97;;;1.03;100.00
41945;BME280;63122;52.424;13.458;2024-01-15T09:08:32;98623.81;;;1.04;100.00
41945;BME280;63122;52.424;13.458;2024-01-15T09:10:24;98617.94;;;1.02;100.00
41945;BME280;63122;52.424;13.458;2024-01-15T09:12:22;98638.72;;;1.02;100.00
41945;BME280;63122;52.424;13.458;2024-01-15T09:14:18;98610.97;;;1.02;100.00
41945;BME280;63122;52.424;13.458;2024-01-15T09:16:27;98623.97;;;1.02;100.00
41945;BME280;63122;52.424;13.458;2024-01-15T09:18:28;98634.75;;;0.97;100.00
41945;BME280;63122;52.424;13.458;2024-01-15T09:20:25;98625.88;;;1.00;100.00
41945;BME280;63122;52.424;13.458;2024-01-15T09:22:20;98612.91;;;1.00;100.00
41945;BME280;63122;52.424;13.458;2024-01-15T09:24:16;98623.41;;;0.98;100.00
41945;BME280;63122;52.424;13.458;2024-01-15T09:26:18;98611.41;;;0.97;100.00
41945;BME280;63122;52.424;13.458;2024-01-15T09:28:14;98634.88;;;0.96;100.00
41945;BME280;63122;52.424;13.458;2024-01-15T09:30:10;98641.03;;;0.95;100.00
41945;BME280;63122;52.424;13.458;2024-01-15T09:32:07;98646.25;;;0.95;100.00
41945;BME280;63122;52.424;13.458;2024-01-15T09:34:04;98648.72;;;0.96;100.00
41945;BME280;63122;52.424;13.458;2024-01-15T09:36:01;98631.50;;;0.95;100.00
41945;BME280;63122;52.424;13.458;2024-01-15T09:37:57;98628.06;;;0.95;100.00
41945;BME280;63122;52.424;13.458;2024-01-15T09:39:50;98651.72;;;0.92;100.00
41945;BME280;63122;52.424;13.458;2024-01-15T09:45:40;98646.41;;;0.93;100.00
41945;BME280;63122;52.424;13.458;2024-01-15T09:47:37;98655.94;;;0.93;100.00
41945;BME280;63122;52.424;13.458;2024-01-15T09:52:39;98644.31;;;0.97;100.00
41945;BME280;63122;52.424;13.458;2024-01-15T09:54:35;98638.19;;;0.98;100.00
41945;BME280;63122;52.424;13.458;2024-01-15T09:56:29;98626.03;;;0.98;100.00
41945;BME280;63122;52.424;13.458;2024-01-15T09:58:27;98632.84;;;0.99;100.00
41945;BME280;63122;52.424;13.458;2024-01-15T10:00:24;98612.75;;;1.02;100.00
41945;BME280;63122;52.424;13.458;2024-01-15T10:02:20;98630.81;;;1.03;100.00
41945;BME280;63122;52.424;13.458;2024-01-15T10:04:18;98601.28;;;1.04;100.00
41945;BME280;63122;52.424;13.458;2024-01-15T10:06:16;98615.75;;;1.07;100.00
41945;BME280;63122;52.424;13.458;2024-01-15T10:08:17;98595.63;;;1.09;100.00
41945;BME280;63122;52.424;13.458;2024-01-15T10:10:18;98609.31;;;1.11;100.00
41945;BME280;63122;52.424;13.458;2024-01-15T10:16:46;98610.69;;;1.15;100.00
41945;BME280;63122;52.424;13.458;2024-01-15T10:18:52;98642.81;;;1.14;100.00
41945;BME280;63122;52.424;13.458;2024-01-15T10:20:47;98615.19;;;1.13;100.00
41945;BME280;63122;52.424;13.458;2024-01-15T10:22:45;98623.94;;;1.12;100.00
41945;BME280;63122;52.424;13.458;2024-01-15T10:24:43;98608.38;;;1.12;100.00
41945;BME280;63122;52.424;13.458;2024-01-15T10:26:41;98609.84;;;1.14;100.00
41945;BME280;63122;52.424;13.458;2024-01-15T10:28:37;98624.47;;;1.15;100.00
41945;BME280;63122;52.424;13.458;2024-01-15T10:30:34;98596.56;;;1.18;100.00
41945;BME280;63122;52.424;13.458;2024-01-15T10:32:29;98619.94;;;1.18;100.00
41945;BME280;63122;52.424;13.458;2024-01-15T10:34:25;98647.56;;;1.19;100.00
41945;BME280;63122;52.424;13.458;2024-01-15T10:40:52;98591.91;;;1.21;100.00
41945;BME280;63122;52.424;13.458;2024-01-15T10:46:36;98585.47;;;1.25;100.00
41945;BME280;63122;52.424;13.458;2024-01-15T10:55:58;98603.00;;;1.23;100.00
41945;BME280;63122;52.424;13.458;2024-01-15T12:07:20;98635.44;;;1.09;100.00
41945;BME280;63122;52.424;13.458;2024-01-15T12:16:51;98630.34;;;1.08;100.00
41945;BME280;63122;52.424;13.458;2024-01-15T12:22:13;98644.19;;;1.08;100.00
41945;BME280;63122;52.424;13.458;2024-01-15T12:31:09;98649.50;;;1.07;100.00
41945;BME280;63122;52.424;13.458;2024-01-15T12:33:24;98677.66;;;1.02;100.00
41945;BME280;63122;52.424;13.458;2024-01-15T12:35:21;98654.44;;;1.00;100.00
41945;BME280;63122;52.424;13.458;2024-01-15T12:37:17;98640.50;;;1.01;100.00
41945;BME280;63122;52.424;13.458;2024-01-15T12:39:13;98619.75;;;1.01;100.00
41945;BME280;63122;52.424;13.458;2024-01-15T12:41:08;98629.97;;;1.03;100.00
41945;BME280;63122;52.424;13.458;2024-01-15T12:43:01;98643.78;;;1.03;100.00
41945;BME280;63122;52.424;13.458;2024-01-15T12:44:57;98622.19;;;1.03;100.00
41945;BME280;63122;52.424;13.458;2024-01-15T12:46:51;98646.50;;;1.02;100.00
41945;BME280;63122;52.424;13.458;2024-01-15T12:48:46;98634.19;;;1.04;100.00
41945;BME280;63122;52.424;13.458;2024-01-15T12:50:42;98637.75;;;1.03;100.00
41945;BME280;63122;52.424;13.458;2024-01-15T12:52:42;98636.13;;;1.02;100.00
41945;BME280;63122;52.424;13.458;2024-01-15T12:54:35;98651.56;;;1.03;100.00
41945;BME280;63122;52.424;13.458;2024-01-15T12:56:34;98666.06;;;0.96;100.00
41945;BME280;63122;52.424;13.458;2024-01-15T13:01:40;98643.97;;;0.72;100.00
41945;BME280;63122;52.424;13.458;2024-01-15T13:04:17;98650.78;;;0.73;100.00
41945;BME280;63122;52.424;13.458;2024-01-15T13:25:21;98671.81;;;0.90;100.00
41945;BME280;63122;52.424;13.458;2024-01-15T13:27:17;98677.69;;;0.92;100.00
41945;BME280;63122;52.424;13.458;2024-01-15T13:29:14;98679.59;;;0.90;100.00
41945;BME280;63122;52.424;13.458;2024-01-15T13:31:16;98689.28;;;0.88;100.00
41945;BME280;63122;52.424;13.458;2024-01-15T13:33:13;98702.28;;;0.88;100.00
41945;BME280;63122;52.424;13.458;2024-01-15T13:46:25;98704.59;;;0.91;100.00
41945;BME280;63122;52.424;13.458;2024-01-15T13:48:48;98704.47;;;0.92;100.00
41945;BME280;63122;52.424;13.458;2024-01-15T13:50:44;98696.69;;;0.92;100.00
41945;BME280;63122;52.424;13.458;2024-01-15T13:52:40;98712.25;;;0.92;100.00
41945;BME280;63122;52.424;13.458;2024-01-15T13:54:35;98703.53;;;0.93;100.00
41945;BME280;63122;52.424;13.458;2024-01-15T13:56:41;98724.13;;;0.95;100.00
41945;BME280;63122;52.424;13.458;2024-01-15T13:58:39;98714.59;;;0.95;100.00
41945;BME280;63122;52.424;13.458;2024-01-15T14:00:36;98725.09;;;0.94;100.00
41945;BME280;63122;52.424;13.458;2024-01-15T14:02:35;98720.19;;;0.91;100.00
41945;BME280;63122;52.424;13.458;2024-01-15T14:04:27;98721.81;;;0.92;100.00
41945;BME280;63122;52.424;13.458;2024-01-15T14:06:27;98719.22;;;0.92;100.00
41945;BME280;63122;52.424;13.458;2024-01-15T14:08:22;98731.25;;;0.93;100.00
41945;BME280;63122;52.424;13.458;2024-01-15T14:10:18;98728.66;;;0.93;100.00
41945;BME280;63122;52.424;13.458;2024-01-15T14:12:14;98729.75;;;0.90;100.00
41945;BME280;63122;52.424;13.458;2024-01-15T14:14:12;98745.34;;;0.90;100.00
41945;BME280;63122;52.424;13.458;2024-01-15T14:16:09;98734.53;;;0.85;100.00
41945;BME280;63122;52.424;13.458;2024-01-15T14:18:11;98742.72;;;0.80;100.00
41945;BME280;63122;52.424;13.458;2024-01-15T14:20:09;98749.41;;;0.83;100.00
41945;BME280;63122;52.424;13.458;2024-01-15T14:22:05;98754.19;;;0.78;100.00
41945;BME280;63122;52.424;13.458;2024-01-15T14:24:00;98746.97;;;0.71;100.00
41945;BME280;63122;52.424;13.458;2024-01-15T14:25:59;98741.75;;;0.71;100.00
41945;BME280;63122;52.424;13.458;2024-01-15T14:28:04;98753.94;;;0.71;100.00
41945;BME280;63122;52.424;13.458;2024-01-15T14:30:17;98754.34;;;0.76;100.00
41945;BME280;63122;52.424;13.458;2024-01-15T14:32:34;98750.38;;;0.72;100.00
41945;BME280;63122;52.424;13.458;2024-01-15T14:35:01;98743.56;;;0.71;100.00
41945;BME280;63122;52.424;13.458;2024-01-15T14:37:31;98752.31;;;0.70;100.00
41945;BME280;63122;52.424;13.458;2024-01-15T14:39:58;98755.69;;;0.70;100.00
41945;BME280;63122;52.424;13.458;2024-01-15T14:42:55;98768.78;;;0.69;100.00
41945;BME280;63122;52.424;13.458;2024-01-15T15:14:45;98823.03;;;0.62;100.00
41945;BME280;63122;52.424;13.458;2024-01-15T15:22:09;98822.88;;;0.64;100.00
41945;BME280;63122;52.424;13.458;2024-01-15T15:24:13;98831.34;;;0.66;100.00
41945;BME280;63122;52.424;13.458;2024-01-15T15:27:15;98823.72;;;0.64;100.00
41945;BME280;63122;52.424;13.458;2024-01-15T15:33:02;98854.72;;;0.66;100.00
41945;BME280;63122;52.424;13.458;2024-01-15T15:36:26;98842.84;;;0.63;100.00
41945;BME280;63122;52.424;13.458;2024-01-15T15:53:05;98871.88;;;0.47;100.00
41945;BME280;63122;52.424;13.458;2024-01-15T15:56:28;98878.44;;;0.51;100.00
41945;BME280;63122;52.424;13.458;2024-01-15T16:03:10;98889.91;;;0.49;100.00
41945;BME280;63122;52.424;13.458;2024-01-15T16:07:09;98901.22;;;0.48;100.00
41945;BME280;63122;52.424;13.458;2024-01-15T16:15:20;98895.72;;;0.31;100.00
41945;BME280;63122;52.424;13.458;2024-01-15T16:17:19;98907.16;;;0.28;100.00
41945;BME280;63122;52.424;13.458;2024-01-15T16:19:31;98903.59;;;0.30;100.00
41945;BME280;63122;52.424;13.458;2024-01-15T16:25:06;98911.53;;;0.28;100.00
41945;BME280;63122;52.424;13.458;2024-01-15T16:28:22;98931.34;;;0.29;100.00
41945;BME280;63122;52.424;13.458;2024-01-15T16:33:53;98916.03;;;0.05;100.00
41945;BME280;63122;52.424;13.458;2024-01-15T16:35:57;98914.06;;;-0.03;100.00
41945;BME280;63122;52.424;13.458;2024-01-15T16:38:06;98931.66;;;-0.07;100.00
41945;BME280;63122;52.424;13.458;2024-01-15T16:40:55;98936.50;;;-0.13;100.00
41945;BME280;63122;52.424;13.458;2024-01-15T16:43:10;98941.13;;;-0.17;100.00
41945;BME280;63122;52.424;13.458;2024-01-15T16:45:22;98943.84;;;-0.19;100.00
41945;BME280;63122;52.424;13.458;2024-01-15T16:47:32;98954.66;;;-0.13;100.00
41945;BME280;63122;52.424;13.458;2024-01-15T16:53:45;98954.41;;;-0.10;100.00
41945;BME280;63122;52.424;13.458;2024-01-15T16:59:25;98963.03;;;-0.10;100.00
41945;BME280;63122;52.424;13.458;2024-01-15T17:02:00;98964.06;;;-0.12;100.00